Time,TemperatureF,DewpointF,PressureIn,WindDirection,WindDirectionDegrees,WindSpeedMPH,WindSpeedGustMPH,Humidity,HourlyPrecipIn,Conditions,Clouds,dailyrainin,SoftwareType,DateUTC
2013-01-16 00:02:00,18.0,13.0,-100.00,East,90,2.0,3.0,81,-99.99,,,-99.99,,2013-01-16 08:02:00,
2013-01-16 00:12:00,19.0,14.0,-100.00,North,-999,0.0,0.0,82,-99.99,,,-99.99,,2013-01-16 08:12:00,
2013-01-16 00:22:00,19.0,14.0,-100.00,North,-999,0.0,0.0,82,-99.99,,,-99.99,,2013-01-16 08:22:00,
2013-01-16 00:32:00,18.0,13.0,-100.00,East,90,3.0,4.0,83,-99.99,,,-99.99,,2013-01-16 08:32:00,
2013-01-16 00:42:00,17.0,13.0,-100.00,East,90,1.0,2.0,84,-99.99,,,-99.99,,2013-01-16 08:42:00,
2013-01-16 00:52:00,17.0,13.0,-100.00,East,90,1.0,2.0,84,-99.99,,,-99.99,,2013-01-16 08:52:00,
2013-01-16 01:02:00,18.0,14.0,-100.00,East,90,2.0,2.0,83,-99.99,,,-99.99,,2013-01-16 09:02:00,
2013-01-16 01:11:00,18.0,13.0,-100.00,East,90,2.0,3.0,83,-99.99,,,-99.99,,2013-01-16 09:11:00,
2013-01-16 01:22:00,18.0,13.0,-100.00,East,90,2.0,3.0,83,-99.99,,,-99.99,,2013-01-16 09:22:00,
2013-01-16 01:32:00,17.0,13.0,-100.00,East,90,3.0,3.0,85,-99.99,,,-99.99,,2013-01-16 09:32:00,
2013-01-16 01:42:00,18.0,14.0,-100.00,East,90,2.0,2.0,85,-99.99,,,-99.99,,2013-01-16 09:42:00,
2013-01-16 01:52:00,18.0,14.0,-100.00,East,90,2.0,2.0,85,-99.99,,,-99.99,,2013-01-16 09:52:00,
2013-01-16 02:02:00,19.0,15.0,-100.00,NW,315,1.0,1.0,84,-99.99,,,-99.99,,2013-01-16 10:02:00,
2013-01-16 02:12:00,19.0,15.0,-100.00,East,90,1.0,1.0,84,-99.99,,,-99.99,,2013-01-16 10:12:00,
2013-01-16 02:22:00,19.0,15.0,-100.00,East,90,1.0,1.0,84,-99.99,,,-99.99,,2013-01-16 10:22:00,
2013-01-16 02:32:00,16.0,12.0,-100.00,East,90,3.0,4.0,85,-99.99,,,-99.99,,2013-01-16 10:32:00,
2013-01-16 02:42:00,16.0,13.0,-100.00,East,90,4.0,6.0,88,-99.99,,,-99.99,,2013-01-16 10:42:00,
2013-01-16 02:52:00,16.0,13.0,-100.00,East,90,4.0,6.0,88,-99.99,,,-99.99,,2013-01-16 10:52:00,
2013-01-16 03:02:00,17.0,15.0,-100.00,East,90,3.0,3.0,89,-99.99,,,-99.99,,2013-01-16 11:02:00,
2013-01-16 03:11:00,18.0,15.0,-100.00,East,90,3.0,3.0,89,-99.99,,,-99.99,,2013-01-16 11:11:00,
2013-01-16 03:22:00,18.0,15.0,-100.00,East,90,3.0,3.0,89,-99.99,,,-99.99,,2013-01-16 11:22:00,
2013-01-16 03:32:00,15.0,13.0,-100.00,East,90,4.0,4.0,89,-99.99,,,-99.99,,2013-01-16 11:32:00,
2013-01-16 03:42:00,15.0,12.0,-100.00,East,90,4.0,4.0,89,-99.99,,,-99.99,,2013-01-16 11:42:00,
2013-01-16 03:53:00,15.0,12.0,-100.00,East,90,4.0,4.0,89,-99.99,,,-99.99,,2013-01-16 11:53:00,
2013-01-16 04:02:00,15.0,13.0,-100.00,East,90,3.0,4.0,91,-99.99,,,-99.99,,2013-01-16 12:02:00,
2013-01-16 04:12:00,15.0,13.0,-100.00,East,90,3.0,3.0,91,-99.99,,,-99.99,,2013-01-16 12:12:00,
2013-01-16 04:22:00,15.0,13.0,-100.00,East,90,3.0,3.0,91,-99.99,,,-99.99,,2013-01-16 12:22:00,
2013-01-16 04:32:00,16.0,14.0,-100.00,NE,45,1.0,1.0,92,-99.99,,,-99.99,,2013-01-16 12:32:00,
2013-01-16 04:42:00,18.0,16.0,-100.00,North,-999,0.0,0.0,91,-99.99,,,-99.99,,2013-01-16 12:42:00,
2013-01-16 04:53:00,18.0,16.0,-100.00,North,-999,0.0,0.0,91,-99.99,,,-99.99,,2013-01-16 12:53:00,
2013-01-16 05:02:00,17.0,15.0,-100.00,North,-999,0.0,0.0,91,-99.99,,,-99.99,,2013-01-16 13:02:00,
2013-01-16 05:12:00,16.0,14.0,-100.00,West,270,1.0,1.0,91,-99.99,,,-99.99,,2013-01-16 13:12:00,
2013-01-16 05:22:00,16.0,14.0,-100.00,West,270,1.0,1.0,91,-99.99,,,-99.99,,2013-01-16 13:22:00,
2013-01-16 05:32:00,15.0,14.0,-100.00,SE,135,1.0,1.0,93,-99.99,,,-99.99,,2013-01-16 13:32:00,
2013-01-16 05:42:00,15.0,13.0,-100.00,East,90,1.0,2.0,93,-99.99,,,-99.99,,2013-01-16 13:42:00,
2013-01-16 05:53:00,15.0,13.0,-100.00,East,90,1.0,2.0,93,-99.99,,,-99.99,,2013-01-16 13:53:00,
2013-01-16 06:02:00,12.0,11.0,-100.00,East,90,3.0,3.0,93,-99.99,,,-99.99,,2013-01-16 14:02:00,
2013-01-16 06:12:00,13.0,11.0,-100.00,East,90,1.0,1.0,93,-99.99,,,-99.99,,2013-01-16 14:12:00,
2013-01-16 06:22:00,13.0,11.0,-100.00,East,90,1.0,1.0,93,-99.99,,,-99.99,,2013-01-16 14:22:00,
2013-01-16 06:32:00,13.0,11.0,-100.00,East,90,1.0,1.0,94,-99.99,,,-99.99,,2013-01-16 14:32:00,
2013-01-16 06:42:00,13.0,11.0,-100.00,East,90,2.0,2.0,94,-99.99,,,-99.99,,2013-01-16 14:42:00,
2013-01-16 06:53:00,13.0,11.0,-100.00,East,90,2.0,2.0,94,-99.99,,,-99.99,,2013-01-16 14:53:00,
2013-01-16 07:02:00,13.0,12.0,-100.00,East,90,2.0,2.0,94,-99.99,,,-99.99,,2013-01-16 15:02:00,
2013-01-16 07:12:00,13.0,12.0,-100.00,East,90,1.0,1.0,94,-99.99,,,-99.99,,2013-01-16 15:12:00,
2013-01-16 07:22:00,13.0,12.0,-100.00,East,90,1.0,1.0,94,-99.99,,,-99.99,,2013-01-16 15:22:00,
2013-01-16 07:32:00,13.0,12.0,-100.00,East,90,1.0,1.0,94,-99.99,,,-99.99,,2013-01-16 15:32:00,
2013-01-16 07:42:00,13.0,12.0,-100.00,East,90,1.0,2.0,94,-99.99,,,-99.99,,2013-01-16 15:42:00,
2013-01-16 07:53:00,13.0,12.0,-100.00,East,90,1.0,2.0,94,-99.99,,,-99.99,,2013-01-16 15:53:00,
2013-01-16 08:12:00,12.0,10.0,-100.00,East,90,3.0,3.0,93,-99.99,,,-99.99,,2013-01-16 16:12:00,
2013-01-16 08:22:00,12.0,10.0,-100.00,East,90,3.0,3.0,93,-99.99,,,-99.99,,2013-01-16 16:22:00,
2013-01-16 08:32:00,12.0,10.0,-100.00,East,90,1.0,1.0,93,-99.99,,,-99.99,,2013-01-16 16:32:00,
2013-01-16 08:42:00,13.0,11.0,-100.00,East,90,1.0,2.0,93,-99.99,,,-99.99,,2013-01-16 16:42:00,
2013-01-16 08:53:00,13.0,11.0,-100.00,East,90,1.0,2.0,93,-99.99,,,-99.99,,2013-01-16 16:53:00,
2013-01-16 09:02:00,13.0,11.0,-100.00,East,90,1.0,2.0,93,-99.99,,,-99.99,,2013-01-16 17:02:00,
2013-01-16 09:12:00,14.0,13.0,-100.00,East,90,2.0,2.0,93,-99.99,,,-99.99,,2013-01-16 17:12:00,
2013-01-16 09:22:00,14.0,13.0,-100.00,East,90,2.0,2.0,93,-99.99,,,-99.99,,2013-01-16 17:22:00,
2013-01-16 09:33:00,18.0,16.0,-100.00,East,90,3.0,3.0,93,-99.99,,,-99.99,,2013-01-16 17:33:00,
2013-01-16 09:44:00,20.0,18.0,-100.00,East,90,2.0,3.0,93,-99.99,,,-99.99,,2013-01-16 17:44:00,
2013-01-16 09:53:00,20.0,18.0,-100.00,East,90,2.0,3.0,93,-99.99,,,-99.99,,2013-01-16 17:53:00,
2013-01-16 10:02:00,21.0,18.0,-100.00,SW,225,3.0,3.0,89,-99.99,,,-99.99,,2013-01-16 18:02:00,
2013-01-16 10:12:00,22.0,19.0,-100.00,SW,225,1.0,1.0,86,-99.99,,,-99.99,,2013-01-16 18:12:00,
2013-01-16 10:22:00,22.0,19.0,-100.00,SW,225,1.0,1.0,86,-99.99,,,-99.99,,2013-01-16 18:22:00,
2013-01-16 10:33:00,24.0,19.0,-100.00,SW,225,1.0,1.0,80,-99.99,,,-99.99,,2013-01-16 18:33:00,
2013-01-16 10:42:00,27.0,20.0,-100.00,SW,225,1.0,2.0,74,-99.99,,,-99.99,,2013-01-16 18:42:00,
2013-01-16 10:53:00,27.0,20.0,-100.00,SW,225,1.0,2.0,74,-99.99,,,-99.99,,2013-01-16 18:53:00,
2013-01-16 11:02:00,29.0,18.0,-100.00,West,270,1.0,1.0,63,-99.99,,,-99.99,,2013-01-16 19:02:00,
2013-01-16 11:12:00,30.0,18.0,-100.00,South,180,1.0,1.0,60,-99.99,,,-99.99,,2013-01-16 19:12:00,
2013-01-16 11:22:00,30.0,18.0,-100.00,South,180,1.0,1.0,60,-99.99,,,-99.99,,2013-01-16 19:22:00,
2013-01-16 11:32:00,32.0,16.0,-100.00,West,270,3.0,3.0,52,-99.99,,,-99.99,,2013-01-16 19:32:00,
2013-01-16 11:42:00,31.0,16.0,-100.00,West,270,3.0,3.0,54,-99.99,,,-99.99,,2013-01-16 19:42:00,
2013-01-16 11:53:00,31.0,16.0,-100.00,West,270,3.0,3.0,54,-99.99,,,-99.99,,2013-01-16 19:53:00,
2013-01-16 12:02:00,31.0,16.0,-100.00,West,270,3.0,3.0,52,-99.99,,,-99.99,,2013-01-16 20:02:00,
2013-01-16 12:12:00,31.0,16.0,-100.00,West,270,3.0,3.0,52,-99.99,,,-99.99,,2013-01-16 20:12:00,
2013-01-16 12:23:00,31.0,16.0,-100.00,West,270,3.0,3.0,52,-99.99,,,-99.99,,2013-01-16 20:23:00,
2013-01-16 12:32:00,31.0,15.0,-100.00,West,270,3.0,3.0,51,-99.99,,,-99.99,,2013-01-16 20:32:00,
2013-01-16 12:42:00,32.0,15.0,-100.00,SW,225,1.0,1.0,49,-99.99,,,-99.99,,2013-01-16 20:42:00,
2013-01-16 12:53:00,32.0,15.0,-100.00,SW,225,1.0,1.0,49,-99.99,,,-99.99,,2013-01-16 20:53:00,
2013-01-16 13:02:00,33.0,15.0,-100.00,West,270,2.0,2.0,47,-99.99,,,-99.99,,2013-01-16 21:02:00,
2013-01-16 13:12:00,33.0,15.0,-100.00,West,270,4.0,4.0,47,-99.99,,,-99.99,,2013-01-16 21:12:00,
2013-01-16 13:22:00,33.0,15.0,-100.00,West,270,4.0,4.0,47,-99.99,,,-99.99,,2013-01-16 21:22:00,
2013-01-16 13:32:00,32.0,14.0,-100.00,West,270,3.0,4.0,47,-99.99,,,-99.99,,2013-01-16 21:32:00,
2013-01-16 13:42:00,33.0,15.0,-100.00,West,270,3.0,4.0,47,-99.99,,,-99.99,,2013-01-16 21:42:00,
2013-01-16 13:52:00,33.0,15.0,-100.00,West,270,3.0,4.0,47,-99.99,,,-99.99,,2013-01-16 21:52:00,
2013-01-16 14:02:00,34.0,15.0,-100.00,West,270,2.0,3.0,44,-99.99,,,-99.99,,2013-01-16 22:02:00,
2013-01-16 14:12:00,36.0,16.0,-100.00,North,-999,0.0,0.0,43,-99.99,,,-99.99,,2013-01-16 22:12:00,
2013-01-16 14:22:00,36.0,16.0,-100.00,North,-999,0.0,0.0,43,-99.99,,,-99.99,,2013-01-16 22:22:00,
2013-01-16 14:32:00,37.0,16.0,-100.00,South,180,1.0,1.0,42,-99.99,,,-99.99,,2013-01-16 22:32:00,
2013-01-16 14:43:00,37.0,15.0,-100.00,West,270,3.0,3.0,40,-99.99,,,-99.99,,2013-01-16 22:43:00,
2013-01-16 14:52:00,37.0,15.0,-100.00,West,270,3.0,3.0,40,-99.99,,,-99.99,,2013-01-16 22:52:00,
2013-01-16 15:02:00,36.0,15.0,-100.00,West,270,3.0,3.0,42,-99.99,,,-99.99,,2013-01-16 23:02:00,
2013-01-16 15:12:00,37.0,15.0,-100.00,West,270,1.0,1.0,40,-99.99,,,-99.99,,2013-01-16 23:12:00,
2013-01-16 15:22:00,37.0,15.0,-100.00,West,270,1.0,1.0,40,-99.99,,,-99.99,,2013-01-16 23:22:00,
2013-01-16 15:32:00,38.0,16.0,-100.00,SW,225,1.0,1.0,39,-99.99,,,-99.99,,2013-01-16 23:32:00,
2013-01-16 15:42:00,40.0,16.0,-100.00,SE,135,2.0,3.0,38,-99.99,,,-99.99,,2013-01-16 23:42:00,
2013-01-16 15:53:00,40.0,16.0,-100.00,SE,135,2.0,3.0,38,-99.99,,,-99.99,,2013-01-16 23:53:00,
2013-01-16 16:02:00,39.0,15.0,-100.00,SE,135,1.0,1.0,37,-99.99,,,-99.99,,2013-01-17 00:02:00,
2013-01-16 16:12:00,39.0,15.0,-100.00,East,90,0.0,1.0,37,-99.99,,,-99.99,,2013-01-17 00:12:00,
2013-01-16 16:22:00,39.0,15.0,-100.00,East,90,0.0,1.0,37,-99.99,,,-99.99,,2013-01-17 00:22:00,
2013-01-16 16:32:00,36.0,14.0,-100.00,East,90,2.0,3.0,40,-99.99,,,-99.99,,2013-01-17 00:32:00,
2013-01-16 16:42:00,34.0,13.0,-100.00,East,90,3.0,4.0,42,-99.99,,,-99.99,,2013-01-17 00:42:00,
2013-01-16 16:52:00,34.0,13.0,-100.00,East,90,3.0,4.0,42,-99.99,,,-99.99,,2013-01-17 00:52:00,
2013-01-16 17:02:00,31.0,12.0,-100.00,East,90,3.0,3.0,45,-99.99,,,-99.99,,2013-01-17 01:02:00,
2013-01-16 17:12:00,29.0,12.0,-100.00,East,90,3.0,4.0,50,-99.99,,,-99.99,,2013-01-17 01:12:00,
2013-01-16 17:22:00,29.0,12.0,-100.00,East,90,3.0,4.0,50,-99.99,,,-99.99,,2013-01-17 01:22:00,
2013-01-16 17:32:00,27.0,14.0,-100.00,East,90,3.0,4.0,58,-99.99,,,-99.99,,2013-01-17 01:32:00,
2013-01-16 17:42:00,27.0,15.0,-100.00,East,90,3.0,3.0,61,-99.99,,,-99.99,,2013-01-17 01:42:00,
2013-01-16 17:52:00,27.0,15.0,-100.00,East,90,3.0,3.0,61,-99.99,,,-99.99,,2013-01-17 01:52:00,
2013-01-16 18:02:00,25.0,16.0,-100.00,East,90,3.0,3.0,68,-99.99,,,-99.99,,2013-01-17 02:02:00,
2013-01-16 18:12:00,25.0,17.0,-100.00,East,90,2.0,3.0,70,-99.99,,,-99.99,,2013-01-17 02:12:00,
2013-01-16 18:22:00,25.0,17.0,-100.00,East,90,2.0,3.0,70,-99.99,,,-99.99,,2013-01-17 02:22:00,
2013-01-16 18:32:00,25.0,17.0,-100.00,East,90,3.0,3.0,73,-99.99,,,-99.99,,2013-01-17 02:32:00,
2013-01-16 18:42:00,25.0,17.0,-100.00,East,90,3.0,3.0,73,-99.99,,,-99.99,,2013-01-17 02:42:00,
2013-01-16 18:52:00,25.0,17.0,-100.00,East,90,3.0,3.0,73,-99.99,,,-99.99,,2013-01-17 02:52:00,
2013-01-16 19:02:00,23.0,17.0,-100.00,East,90,3.0,3.0,75,-99.99,,,-99.99,,2013-01-17 03:02:00,
2013-01-16 19:12:00,23.0,17.0,-100.00,East,90,3.0,4.0,76,-99.99,,,-99.99,,2013-01-17 03:12:00,
2013-01-16 19:22:00,23.0,17.0,-100.00,East,90,3.0,4.0,76,-99.99,,,-99.99,,2013-01-17 03:22:00,
2013-01-16 19:32:00,23.0,17.0,-100.00,NE,45,1.0,1.0,77,-99.99,,,-99.99,,2013-01-17 03:32:00,
2013-01-16 19:42:00,23.0,16.0,-100.00,East,90,2.0,3.0,77,-99.99,,,-99.99,,2013-01-17 03:42:00,
2013-01-16 19:52:00,23.0,16.0,-100.00,East,90,2.0,3.0,77,-99.99,,,-99.99,,2013-01-17 03:52:00,
2013-01-16 20:02:00,22.0,16.0,-100.00,East,90,3.0,3.0,80,-99.99,,,-99.99,,2013-01-17 04:02:00,
2013-01-16 20:12:00,22.0,17.0,-100.00,East,90,1.0,2.0,80,-99.99,,,-99.99,,2013-01-17 04:12:00,
2013-01-16 20:22:00,22.0,17.0,-100.00,East,90,1.0,2.0,80,-99.99,,,-99.99,,2013-01-17 04:22:00,
2013-01-16 20:32:00,22.0,17.0,-100.00,NE,45,1.0,1.0,80,-99.99,,,-99.99,,2013-01-17 04:32:00,
2013-01-16 20:42:00,21.0,16.0,-100.00,East,90,2.0,2.0,80,-99.99,,,-99.99,,2013-01-17 04:42:00,
2013-01-16 20:52:00,21.0,16.0,-100.00,East,90,2.0,2.0,80,-99.99,,,-99.99,,2013-01-17 04:52:00,
2013-01-16 21:03:00,22.0,16.0,-100.00,East,90,3.0,3.0,79,-99.99,,,-99.99,,2013-01-17 05:03:00,
2013-01-16 21:12:00,21.0,16.0,-100.00,East,90,3.0,3.0,79,-99.99,,,-99.99,,2013-01-17 05:12:00,
2013-01-16 21:22:00,21.0,16.0,-100.00,East,90,3.0,3.0,79,-99.99,,,-99.99,,2013-01-17 05:22:00,
2013-01-16 21:32:00,21.0,15.0,-100.00,East,90,1.0,1.0,79,-99.99,,,-99.99,,2013-01-17 05:32:00,
2013-01-16 21:42:00,21.0,16.0,-100.00,North,-999,0.0,0.0,80,-99.99,,,-99.99,,2013-01-17 05:42:00,
2013-01-16 21:53:00,21.0,16.0,-100.00,North,-999,0.0,0.0,80,-99.99,,,-99.99,,2013-01-17 05:53:00,
2013-01-16 22:02:00,21.0,16.0,-100.00,East,90,3.0,3.0,81,-99.99,,,-99.99,,2013-01-17 06:02:00,
2013-01-16 22:11:00,20.0,15.0,-100.00,East,90,3.0,3.0,81,-99.99,,,-99.99,,2013-01-17 06:11:00,
2013-01-16 22:22:00,20.0,15.0,-100.00,East,90,3.0,3.0,81,-99.99,,,-99.99,,2013-01-17 06:22:00,
2013-01-16 22:32:00,20.0,16.0,-100.00,NE,45,1.0,1.0,82,-99.99,,,-99.99,,2013-01-17 06:32:00,
2013-01-16 22:42:00,21.0,16.0,-100.00,North,0,1.0,1.0,81,-99.99,,,-99.99,,2013-01-17 06:42:00,
2013-01-16 22:52:00,21.0,16.0,-100.00,North,0,1.0,1.0,81,-99.99,,,-99.99,,2013-01-17 06:52:00,
2013-01-16 23:02:00,20.0,16.0,-100.00,East,90,3.0,3.0,81,-99.99,,,-99.99,,2013-01-17 07:02:00,
2013-01-16 23:12:00,21.0,16.0,-100.00,East,90,1.0,1.0,81,-99.99,,,-99.99,,2013-01-17 07:12:00,
2013-01-16 23:22:00,21.0,16.0,-100.00,East,90,1.0,1.0,81,-99.99,,,-99.99,,2013-01-17 07:22:00,
2013-01-16 23:32:00,21.0,16.0,-100.00,East,90,2.0,2.0,81,-99.99,,,-99.99,,2013-01-17 07:32:00,
2013-01-16 23:42:00,21.0,16.0,-100.00,East,90,2.0,2.0,80,-99.99,,,-99.99,,2013-01-17 07:42:00,
2013-01-16 23:52:00,21.0,16.0,-100.00,East,90,2.0,2.0,80,-99.99,,,-99.99,,2013-01-17 07:52:00,